Time;durP1;ratioP1;P1;durP2;ratioP2;P2;SDS_P1;SDS_P2;PMS_P1;PMS_P2;Temp;Humidity;BMP_temperature;BMP_pressure;BME280_temperature;BME280_humidity;BME280_pressure;Samples;Min_cycle;Max_cycle;Signal;HPM_P1;HPM_P2
2023/04/07 00:00:17;;;;;;;59.03;19.83;;;;;;;8.57;100.00;101510.97;5180955;28;20706;-76
2023/04/07 00:02:48;;;;;;;56.42;18.48;;;;;;;8.54;100.00;101519.28;5182827;28;20045;-76
2023/04/07 00:05:18;;;;;;;66.63;22.55;;;;;;;8.52;100.00;101517.72;5182761;28;20373;-76
2023/04/07 00:07:49;;;;;;;57.78;18.92;;;;;;;8.53;100.00;101524.75;5185855;28;20053;-76
2023/04/07 00:10:20;;;;;;;55.13;18.58;;;;;;;8.53;100.00;101522.06;5184427;28;20032;-76
2023/04/07 00:12:50;;;;;;;58.08;19.00;;;;;;;8.46;100.00;101524.47;5185875;28;20096;-76
2023/04/07 00:15:21;;;;;;;52.03;19.38;;;;;;;8.48;100.00;101522.50;5186305;28;20084;-76
2023/04/07 00:17:51;;;;;;;63.80;19.35;;;;;;;8.46;100.00;101524.47;5184755;28;20029;-76
2023/04/07 00:20:22;;;;;;;60.53;19.48;;;;;;;8.47;100.00;101528.81;5186145;28;20022;-76
2023/04/07 00:22:53;;;;;;;53.03;18.58;;;;;;;8.47;100.00;101534.16;5185870;28;20040;-76
2023/04/07 00:25:24;;;;;;;47.75;18.30;;;;;;;8.47;100.00;101536.84;5185748;28;20041;-76
2023/04/07 00:27:54;;;;;;;50.10;18.67;;;;;;;8.45;100.00;101537.97;5184422;28;20034;-75
2023/04/07 00:30:25;;;;;;;55.08;18.15;;;;;;;8.47;100.00;101536.00;5179619;28;20056;-76
2023/04/07 00:32:56;;;;;;;46.40;18.50;;;;;;;8.43;100.00;101538.09;5186000;28;20096;-75
2023/04/07 00:35:26;;;;;;;50.22;17.60;;;;;;;8.40;100.00;101545.56;5185496;28;20735;-76
2023/04/07 00:37:57;;;;;;;48.15;18.70;;;;;;;8.40;100.00;101548.22;5185210;28;20029;-76
2023/04/07 00:40:27;;;;;;;47.03;17.30;;;;;;;8.41;100.00;101547.25;5185416;28;20121;-75
2023/04/07 00:42:58;;;;;;;46.33;17.08;;;;;;;8.40;100.00;101543.72;5185798;28;20058;-76
2023/04/07 00:45:28;;;;;;;43.97;17.33;;;;;;;8.45;100.00;101549.50;5185280;28;20084;-76
2023/04/07 00:47:59;;;;;;;44.00;16.20;;;;;;;8.43;100.00;101550.63;5184830;28;20034;-76
2023/04/07 00:50:29;;;;;;;39.47;16.25;;;;;;;8.37;100.00;101543.13;5185419;28;20064;-76
2023/04/07 00:53:01;;;;;;;43.55;16.55;;;;;;;8.31;100.00;101541.81;5185545;28;20114;-75
2023/04/07 00:55:31;;;;;;;43.53;17.10;;;;;;;8.27;100.00;101541.25;5185422;28;20021;-75
2023/04/07 00:58:04;;;;;;;46.20;16.50;;;;;;;8.26;100.00;101539.56;5184228;28;20029;-76
2023/04/07 01:00:41;;;;;;;50.67;17.33;;;;;;;8.23;100.00;101533.63;5185197;28;20029;-76
2023/04/07 01:03:23;;;;;;;54.60;17.65;;;;;;;8.23;100.00;101529.16;5185285;28;20203;-75
2023/04/07 01:06:00;;;;;;;51.83;18.35;;;;;;;8.22;100.00;101530.09;5217040;28;20037;-76
2023/04/07 01:08:53;;;;;;;54.80;19.27;;;;;;;8.18;100.00;101534.03;5184700;28;20486;-76
2023/04/07 01:11:31;;;;;;;57.03;18.98;;;;;;;8.18;100.00;101527.81;5184488;28;20034;-76
2023/04/07 01:14:03;;;;;;;48.15;19.25;;;;;;;8.15;100.00;101522.78;5170929;28;20034;-76
2023/04/07 01:16:38;;;;;;;52.40;19.20;;;;;;;8.09;100.00;101520.63;5184563;28;20021;-76
2023/04/07 01:19:46;;;;;;;58.17;19.67;;;;;;;8.08;100.00;101526.94;5184719;28;20029;-76
2023/04/07 01:22:23;;;;;;;62.78;21.05;;;;;;;8.05;100.00;101520.06;5184612;28;20034;-76
2023/04/07 01:24:56;;;;;;;65.50;21.83;;;;;;;8.00;100.00;101523.13;5181951;28;20038;-76
2023/04/07 01:27:26;;;;;;;55.63;21.67;;;;;;;8.01;100.00;101526.63;5183515;28;20049;-76
2023/04/07 01:30:00;;;;;;;63.13;19.58;;;;;;;8.00;100.00;101535.63;5184337;28;20022;-75
2023/04/07 01:32:34;;;;;;;52.25;20.63;;;;;;;7.99;100.00;101528.59;5184604;28;20041;-76
2023/04/07 01:35:09;;;;;;;62.38;21.58;;;;;;;7.97;100.00;101533.22;5183260;28;20109;-76
2023/04/07 01:37:40;;;;;;;55.17;20.50;;;;;;;7.91;100.00;101528.41;5183575;28;20053;-76
2023/04/07 01:40:11;;;;;;;54.65;21.92;;;;;;;7.90;100.00;101530.25;5184011;28;20374;-76
2023/04/07 01:42:44;;;;;;;60.95;21.25;;;;;;;7.86;100.00;101526.13;5184561;28;20044;-76
2023/04/07 01:45:16;;;;;;;55.45;22.13;;;;;;;7.86;100.00;101531.47;5184148;28;20026;-75
2023/04/07 01:47:48;;;;;;;60.00;21.45;;;;;;;7.83;100.00;101530.88;5183621;28;20118;-75
2023/04/07 01:50:20;;;;;;;60.30;21.70;;;;;;;7.79;100.00;101525.81;5183425;28;20072;-75
2023/04/07 01:52:51;;;;;;;68.40;22.20;;;;;;;7.75;100.00;101524.38;5184218;28;20028;-76
2023/04/07 01:55:22;;;;;;;65.38;22.58;;;;;;;7.70;100.00;101531.94;5184160;28;20030;-76
2023/04/07 01:57:53;;;;;;;66.07;23.95;;;;;;;7.66;100.00;101530.50;5182441;28;20596;-76
2023/04/07 02:00:24;;;;;;;73.63;24.98;;;;;;;7.63;100.00;101540.59;5184294;28;20042;-76
2023/04/07 02:03:03;;;;;;;84.47;23.42;;;;;;;7.58;100.00;101527.66;5183544;28;20101;-75
2023/04/07 02:05:35;;;;;;;76.22;23.95;;;;;;;7.55;100.00;101537.75;5184124;28;20116;-75
2023/04/07 02:08:09;;;;;;;67.32;23.38;;;;;;;7.51;100.00;101534.47;5183337;28;20030;-75
2023/04/07 02:10:41;;;;;;;71.85;24.85;;;;;;;7.50;100.00;101540.81;5183690;28;20053;-76
2023/04/07 02:13:15;;;;;;;62.03;22.98;;;;;;;7.48;100.00;101543.63;5183071;28;20091;-76
2023/04/07 02:15:48;;;;;;;71.00;23.08;;;;;;;-146.26;100.00;65085.03;5182362;28;20033;-76
2023/04/07 02:18:21;;;;;;;77.22;25.77;;;;;;;7.44;100.00;101549.34;5183930;28;20498;-76
2023/04/07 02:20:52;;;;;;;65.63;24.30;;;;;;;7.40;100.00;101543.41;5183435;28;20513;-75
2023/04/07 02:23:23;;;;;;;63.80;22.55;;;;;;;7.35;100.00;101547.44;5183327;28;20022;-75
2023/04/07 02:25:56;;;;;;;67.70;24.33;;;;;;;7.31;100.00;101548.66;5182772;28;20029;-75
2023/04/07 02:28:27;;;;;;;61.13;23.33;;;;;;;7.27;100.00;101553.41;5182763;28;20052;-75
2023/04/07 02:30:57;;;;;;;58.85;22.58;;;;;;;7.22;100.00;101553.78;5181943;28;20106;-75
2023/04/07 02:33:28;;;;;;;74.20;24.33;;;;;;;7.21;100.00;101556.59;5183586;28;20152;-75
2023/04/07 02:35:58;;;;;;;70.35;23.77;;;;;;;7.18;100.00;101551.50;5181765;28;20110;-75
2023/04/07 02:38:29;;;;;;;59.67;21.40;;;;;;;7.11;100.00;101555.66;5182910;28;20017;-75
2023/04/07 02:40:59;;;;;;;86.05;27.85;;;;;;;7.11;100.00;101555.66;5183292;28;20038;-75
2023/04/07 02:43:30;;;;;;;90.47;29.42;;;;;;;7.14;100.00;101560.75;5183672;28;20030;-75
2023/04/07 02:46:00;;;;;;;75.38;27.48;;;;;;;7.12;100.00;101557.34;5183459;28;20044;-75
2023/04/07 02:48:31;;;;;;;77.82;27.08;;;;;;;7.09;100.00;101554.94;5182285;28;20108;-76
2023/04/07 02:51:01;;;;;;;73.22;25.77;;;;;;;7.03;100.00;101555.41;5183038;28;20026;-76
2023/04/07 02:53:32;;;;;;;76.85;24.88;;;;;;;6.98;100.00;101556.66;5214813;28;20032;-75
2023/04/07 02:56:02;;;;;;;64.32;23.38;;;;;;;6.96;100.00;101563.09;5182991;28;20022;-75
2023/04/07 02:58:33;;;;;;;80.65;24.92;;;;;;;6.92;100.00;101564.31;5182409;28;20037;-75
2023/04/07 03:01:04;;;;;;;73.15;27.45;;;;;;;6.86;100.00;101564.38;5181145;28;20030;-76
2023/04/07 03:03:34;;;;;;;73.80;26.67;;;;;;;6.84;100.00;101570.28;5168811;28;20030;-75
2023/04/07 03:06:05;;;;;;;70.53;25.17;;;;;;;6.82;100.00;101582.03;5182638;28;20057;-75
2023/04/07 03:08:35;;;;;;;72.30;26.80;;;;;;;6.77;100.00;101569.06;5214923;28;20037;-76
2023/04/07 03:11:06;;;;;;;91.90;30.55;;;;;;;6.77;100.00;78288.03;5182893;28;20029;-76
2023/04/07 03:13:36;;;;;;;88.72;29.88;;;;;;;6.83;100.00;101578.38;5182491;28;20440;-76
2023/04/07 03:16:07;;;;;;;91.72;31.25;;;;;;;6.80;100.00;84396.69;5182773;28;20439;-75
2023/04/07 03:18:37;;;;;;;85.80;29.15;;;;;;;6.76;100.00;84391.03;5183486;28;20033;-75
2023/04/07 03:21:08;;;;;;;94.57;33.22;;;;;;;-146.26;100.00;65085.03;5182795;28;20167;-75
2023/04/07 03:23:38;;;;;;;94.07;31.70;;;;;;;-146.26;100.00;65085.03;5182593;28;20107;-75
2023/04/07 03:26:09;;;;;;;95.35;31.75;;;;;;;-146.26;100.00;65085.03;5181922;28;20277;-75
2023/04/07 03:28:39;;;;;;;93.93;30.65;;;;;;;-146.26;100.00;65085.03;5181950;28;20064;-76
2023/04/07 03:31:10;;;;;;;88.45;29.80;;;;;;;-146.26;100.00;65085.03;5182823;28;20068;-76
2023/04/07 03:33:40;;;;;;;99.50;31.88;;;;;;;-146.26;100.00;65085.03;5182785;28;20052;-76
2023/04/07 03:36:11;;;;;;;95.35;31.75;;;;;;;-146.26;100.00;65085.03;5182667;28;20029;-75
2023/04/07 03:38:41;;;;;;;94.78;32.25;;;;;;;-146.26;100.00;65085.03;5181645;28;20029;-76
2023/04/07 03:41:11;;;;;;;106.55;34.17;;;;;;;-146.26;100.00;65085.03;5184258;28;20164;-75
2023/04/07 03:43:42;;;;;;;99.45;32.50;;;;;;;-146.26;100.00;65085.03;5186657;28;20117;-76
2023/04/07 03:46:12;;;;;;;91.90;31.30;;;;;;;-146.26;100.00;65085.03;5186552;28;20475;-75
2023/04/07 03:48:43;;;;;;;104.22;33.70;;;;;;;-146.26;100.00;65085.03;5186569;28;20370;-76
2023/04/07 03:51:15;;;;;;;104.93;32.10;;;;;;;-146.26;100.00;65085.03;5185894;28;20112;-76
2023/04/07 03:53:45;;;;;;;105.72;33.55;;;;;;;-146.26;100.00;65085.03;5181395;28;20491;-76
2023/04/07 03:56:15;;;;;;;93.40;31.63;;;;;;;-146.26;100.00;65085.03;5179826;28;20075;-76
2023/04/07 03:58:47;;;;;;;96.30;31.73;;;;;;;-146.26;100.00;65085.03;5186096;28;20034;-76
2023/04/07 04:01:18;;;;;;;97.43;31.85;;;;;;;-146.26;100.00;65085.03;5185683;28;20022;-76
2023/04/07 04:03:48;;;;;;;91.85;33.22;;;;;;;-146.26;100.00;65085.03;5186335;28;20180;-76
2023/04/07 04:06:19;;;;;;;112.30;33.15;;;;;;;-146.26;100.00;65085.03;5186086;28;20073;-75
2023/04/07 04:08:49;;;;;;;98.68;32.30;;;;;;;-146.26;100.00;65085.03;5186231;28;20025;-75
2023/04/07 04:11:21;;;;;;;106.63;33.25;;;;;;;-146.26;100.00;65085.03;5186135;28;20176;-76
2023/04/07 04:13:51;;;;;;;114.72;34.05;;;;;;;-146.26;100.00;65085.03;5185745;28;20117;-76
2023/04/07 04:16:21;;;;;;;101.45;34.67;;;;;;;-146.26;100.00;65085.03;5185760;28;20542;-75
2023/04/07 04:18:52;;;;;;;105.68;35.90;;;;;;;-146.26;100.00;65085.03;5184222;28;20030;-76
2023/04/07 04:21:23;;;;;;;106.13;33.33;;;;;;;-146.26;100.00;65085.03;5185678;28;20022;-75
2023/04/07 04:23:53;;;;;;;99.05;32.53;;;;;;;-146.26;100.00;65085.03;5185974;28;20028;-76
2023/04/07 04:26:24;;;;;;;97.18;33.33;;;;;;;-146.26;100.00;65085.03;5184873;28;20032;-76
2023/04/07 04:28:55;;;;;;;101.65;33.65;;;;;;;-146.26;100.00;65085.03;5185795;28;20026;-76
2023/04/07 04:31:25;;;;;;;107.82;33.63;;;;;;;-146.26;100.00;65085.03;5185990;28;20026;-76
2023/04/07 04:33:56;;;;;;;96.20;32.60;;;;;;;-146.26;100.00;65085.03;5184557;28;20026;-76
2023/04/07 04:36:27;;;;;;;91.43;30.80;;;;;;;-146.26;100.00;65085.03;5185507;28;20018;-75
2023/04/07 04:38:57;;;;;;;90.55;30.75;;;;;;;-146.26;100.00;65085.03;5185137;28;20049;-76
2023/04/07 04:41:27;;;;;;;91.43;30.15;;;;;;;-146.26;100.00;65085.03;5185668;28;20033;-75
2023/04/07 04:43:58;;;;;;;93.45;30.77;;;;;;;-146.26;100.00;65085.03;5185714;28;20548;-76
2023/04/07 04:46:29;;;;;;;79.32;26.70;;;;;;;-146.26;100.00;65085.03;5185308;28;20022;-76
2023/04/07 04:48:59;;;;;;;66.70;22.73;;;;;;;-146.26;100.00;65085.03;5172383;28;20030;-75
2023/04/07 04:51:30;;;;;;;77.22;25.65;;;;;;;-146.26;100.00;65085.03;5184392;28;20026;-75
2023/04/07 04:54:02;;;;;;;59.67;22.88;;;;;;;-146.26;100.00;65085.03;5185336;28;20026;-75
2023/04/07 04:56:33;;;;;;;72.10;22.42;;;;;;;-146.26;100.00;65085.03;5185111;28;20034;-76
2023/04/07 04:59:03;;;;;;;61.08;20.98;;;;;;;-146.26;100.00;65085.03;5185447;28;20029;-75
2023/04/07 05:01:34;;;;;;;257.42;22.67;;;;;;;-146.26;100.00;65085.03;5184966;28;20052;-76
2023/04/07 05:04:05;;;;;;;114.32;22.67;;;;;;;-146.26;100.00;65085.03;5185146;28;20494;-76
2023/04/07 05:06:35;;;;;;;285.08;26.08;;;;;;;-146.26;100.00;65085.03;5185034;28;20037;-76
2023/04/07 05:09:06;;;;;;;296.73;26.35;;;;;;;-146.26;100.00;65085.03;5185385;28;20022;-75
2023/04/07 05:11:36;;;;;;;197.70;23.35;;;;;;;-146.26;100.00;65085.03;5185229;28;20076;-76
2023/04/07 05:14:07;;;;;;;100.05;25.83;;;;;;;-146.26;100.00;65085.03;5165258;28;20023;-75
2023/04/07 05:16:37;;;;;;;74.43;22.17;;;;;;;-146.26;100.00;65085.03;5184741;28;20497;-76
2023/04/07 05:19:07;;;;;;;280.95;34.00;;;;;;;-146.26;100.00;65085.03;5184840;28;20124;-75
2023/04/07 05:21:38;;;;;;;90.28;24.40;;;;;;;-146.26;100.00;65085.03;5184841;28;20109;-75
2023/04/07 05:24:09;;;;;;;109.60;25.65;;;;;;;-146.26;100.00;65085.03;5184926;28;20463;-76
2023/04/07 05:26:39;;;;;;;140.57;31.95;;;;;;;-146.26;100.00;65085.03;5216580;28;20030;-76
2023/04/07 05:29:10;;;;;;;141.02;31.33;;;;;;;-146.26;100.00;65085.03;5183260;28;20021;-75
2023/04/07 05:31:40;;;;;;;272.63;36.28;;;;;;;-146.26;100.00;65085.03;5185228;28;20117;-75
2023/04/07 05:34:11;;;;;;;195.43;25.58;;;;;;;-146.26;100.00;65085.03;5184768;28;20084;-75
2023/04/07 05:36:41;;;;;;;82.07;23.00;;;;;;;-146.26;100.00;65085.03;5184642;28;20022;-75
2023/04/07 05:39:12;;;;;;;69.90;24.02;;;;;;;-146.26;100.00;65085.03;5184808;28;20049;-75
2023/04/07 05:41:42;;;;;;;61.28;21.85;;;;;;;-146.26;100.00;65085.03;5184255;28;20069;-75
2023/04/07 05:44:13;;;;;;;94.30;25.35;;;;;;;-146.26;100.00;65085.03;5183791;28;20716;-75
2023/04/07 05:46:43;;;;;;;75.30;26.25;;;;;;;-146.26;100.00;65085.03;5184022;28;20030;-75
2023/04/07 05:49:14;;;;;;;127.68;29.85;;;;;;;-146.26;100.00;65085.03;5184750;28;20026;-76
2023/04/07 05:51:44;;;;;;;69.32;25.38;;;;;;;-146.26;100.00;65085.03;5184311;28;20037;-76
2023/04/07 05:54:15;;;;;;;61.53;24.50;;;;;;;-146.26;100.00;65085.03;5184548;28;20379;-75
2023/04/07 05:56:45;;;;;;;70.68;26.40;;;;;;;-146.26;100.00;65085.03;5184542;28;20022;-75
2023/04/07 05:59:16;;;;;;;75.57;26.15;;;;;;;-146.26;100.00;65085.03;5184657;28;20064;-76
2023/04/07 06:01:46;;;;;;;78.95;28.65;;;;;;;-146.26;100.00;65085.03;5183819;28;20483;-76
2023/04/07 06:04:17;;;;;;;80.07;26.40;;;;;;;-146.26;100.00;65085.03;5183255;28;20037;-76
2023/04/07 06:06:47;;;;;;;80.65;27.42;;;;;;;-146.26;100.00;65085.03;5184017;28;20541;-76
2023/04/07 06:09:18;;;;;;;86.07;27.55;;;;;;;-146.26;100.00;65085.03;5184172;28;20386;-75
2023/04/07 06:11:49;;;;;;;93.18;30.48;;;;;;;-146.26;100.00;65085.03;5184155;28;20026;-75
2023/04/07 06:14:19;;;;;;;90.15;29.20;;;;;;;-146.26;100.00;65085.03;5183911;28;20034;-75
2023/04/07 06:16:50;;;;;;;83.47;29.20;;;;;;;-146.26;100.00;65085.03;5183641;28;20021;-75
2023/04/07 06:19:21;;;;;;;99.88;30.85;;;;;;;-146.26;100.00;65085.03;5185410;28;20026;-75
2023/04/07 06:21:51;;;;;;;119.32;36.50;;;;;;;-146.26;100.00;65085.03;5184412;28;20449;-76
2023/04/07 06:24:24;;;;;;;94.82;31.90;;;;;;;-146.26;100.00;65085.03;5184105;28;20029;-76
2023/04/07 06:26:55;;;;;;;106.63;34.60;;;;;;;-146.26;100.00;65085.03;5183239;28;20034;-76
2023/04/07 06:29:26;;;;;;;113.05;37.58;;;;;;;-146.26;100.00;65085.03;5183160;28;20079;-76
2023/04/07 06:31:57;;;;;;;109.97;37.38;;;;;;;-146.26;100.00;65085.03;5183574;28;20034;-76
2023/04/07 06:34:27;;;;;;;108.10;38.42;;;;;;;-146.26;100.00;65085.03;5183681;28;20449;-75
2023/04/07 06:36:58;;;;;;;85.20;30.75;;;;;;;-146.26;100.00;65085.03;5183249;28;20482;-76
2023/04/07 06:39:29;;;;;;;59.72;25.85;;;;;;;-146.26;100.00;65085.03;5183568;28;20765;-76
2023/04/07 06:42:00;;;;;;;49.75;21.35;;;;;;;-146.26;100.00;65085.03;5183254;28;20052;-76
2023/04/07 06:44:30;;;;;;;36.75;16.88;;;;;;;-146.26;100.00;65085.03;5184273;28;20018;-75
2023/04/07 06:47:01;;;;;;;38.05;16.73;;;;;;;-146.26;100.00;65085.03;5183420;28;20025;-76
2023/04/07 06:49:31;;;;;;;32.95;14.13;;;;;;;-146.26;100.00;65085.03;5183522;28;20029;-76
2023/04/07 06:52:02;;;;;;;26.77;11.85;;;;;;;-146.26;100.00;65085.03;5183426;28;20033;-75
2023/04/07 06:54:32;;;;;;;26.85;11.20;;;;;;;-146.26;100.00;65085.03;5183412;28;20037;-75
2023/04/07 06:57:03;;;;;;;33.38;13.45;;;;;;;-146.26;100.00;65085.03;5183070;28;20080;-75
2023/04/07 06:59:33;;;;;;;29.38;13.48;;;;;;;-146.26;100.00;65085.03;5183090;28;20022;-75
2023/04/07 07:02:04;;;;;;;30.35;12.70;;;;;;;-146.26;100.00;65085.03;5181987;28;20026;-75
2023/04/07 07:04:34;;;;;;;22.30;9.87;;;;;;;-146.26;100.00;65085.03;5183150;28;20099;-75
2023/04/07 07:07:05;;;;;;;19.48;8.25;;;;;;;-146.26;100.00;65085.03;5181258;28;20022;-75
2023/04/07 07:09:36;;;;;;;18.60;8.35;;;;;;;-146.26;100.00;65085.03;5182018;28;20076;-75
2023/04/07 07:12:06;;;;;;;15.00;8.02;;;;;;;-146.26;100.00;65085.03;5182242;28;20105;-75
2023/04/07 07:14:36;;;;;;;14.63;7.28;;;;;;;-146.26;100.00;65085.03;5169736;28;20025;-75
2023/04/07 07:17:07;;;;;;;11.88;6.95;;;;;;;-146.26;100.00;65085.03;5182147;28;20509;-75
2023/04/07 07:19:37;;;;;;;17.67;8.05;;;;;;;-146.26;100.00;65085.03;5182846;28;20026;-75
2023/04/07 07:22:08;;;;;;;14.60;7.45;;;;;;;-146.26;100.00;65085.03;5181848;28;20438;-75
2023/04/07 07:24:38;;;;;;;16.75;7.97;;;;;;;-146.26;100.00;65085.03;5183580;28;20025;-75
2023/04/07 07:27:12;;;;;;;17.38;9.30;;;;;;;-146.26;100.00;65085.03;5182386;28;20030;-75
2023/04/07 07:29:42;;;;;;;16.98;8.27;;;;;;;-146.26;100.00;65085.03;5182467;28;20483;-75
2023/04/07 07:32:12;;;;;;;15.95;7.60;;;;;;;-146.26;100.00;65085.03;5182868;28;20030;-75
2023/04/07 07:34:43;;;;;;;17.08;8.32;;;;;;;-146.26;100.00;65085.03;5183367;28;20104;-75
2023/04/07 07:37:13;;;;;;;18.50;9.13;;;;;;;-146.26;100.00;65085.03;5182215;28;20482;-75
2023/04/07 07:39:44;;;;;;;18.50;10.07;;;;;;;-146.26;100.00;65085.03;5181951;28;20030;-75
2023/04/07 07:42:14;;;;;;;22.27;10.93;;;;;;;-146.26;100.00;65085.03;5182093;28;20047;-75
2023/04/07 07:44:45;;;;;;;25.30;15.02;;;;;;;-146.26;100.00;65085.03;5182814;28;20041;-75
2023/04/07 07:47:15;;;;;;;23.17;12.18;;;;;;;-146.26;100.00;65085.03;5164712;28;20022;-74
2023/04/07 07:49:46;;;;;;;20.85;10.30;;;;;;;-146.26;100.00;65085.03;5182776;28;20034;-74
2023/04/07 07:52:16;;;;;;;25.45;11.60;;;;;;;-146.26;100.00;65085.03;5183013;28;20577;-74
2023/04/07 07:54:48;;;;;;;24.50;12.07;;;;;;;-146.26;100.00;65085.03;5182296;28;20021;-74
2023/04/07 07:57:19;;;;;;;24.60;12.25;;;;;;;-146.26;100.00;65085.03;5182008;28;20030;-74
2023/04/07 07:59:49;;;;;;;30.85;13.15;;;;;;;-146.26;100.00;65085.03;5181373;28;20034;-74
2023/04/07 08:02:20;;;;;;;26.60;12.48;;;;;;;-146.26;100.00;65085.03;5182510;28;20025;-74
2023/04/07 08:04:50;;;;;;;25.88;12.98;;;;;;;-146.26;100.00;65085.03;5182515;28;20235;-74
2023/04/07 08:07:21;;;;;;;26.63;12.85;;;;;;;-146.26;100.00;65085.03;5182334;28;20026;-74
2023/04/07 08:09:52;;;;;;;27.23;10.93;;;;;;;-146.26;100.00;65085.03;5183253;28;20032;-74
2023/04/07 08:12:22;;;;;;;22.58;10.13;;;;;;;-146.26;100.00;65085.03;5182748;28;20026;-74
2023/04/07 08:14:53;;;;;;;16.85;8.90;;;;;;;-146.26;100.00;65085.03;5177948;28;20038;-74
2023/04/07 08:17:23;;;;;;;16.58;7.40;;;;;;;-146.26;100.00;65085.03;5177002;28;20034;-74
2023/04/07 08:19:54;;;;;;;13.52;6.50;;;;;;;-146.26;100.00;65085.03;5182467;28;20047;-74
2023/04/07 08:22:24;;;;;;;15.57;5.68;;;;;;;-146.26;100.00;65085.03;5182770;28;20025;-74
2023/04/07 08:24:55;;;;;;;10.18;4.38;;;;;;;-146.26;100.00;65085.03;5183484;28;20026;-75
2023/04/07 08:27:25;;;;;;;7.78;3.63;;;;;;;-146.26;100.00;65085.03;5184252;28;20037;-74
2023/04/07 08:29:59;;;;;;;13.55;3.95;;;;;;;-146.26;100.00;65085.03;5186899;28;20109;-74
2023/04/07 08:32:48;;;;;;;8.27;3.85;;;;;;;-146.26;100.00;65085.03;5185966;28;20445;-74
2023/04/07 08:35:18;;;;;;;8.65;3.20;;;;;;;-146.26;100.00;65085.03;5185246;28;20022;-74
2023/04/07 08:37:49;;;;;;;12.57;4.05;;;;;;;-146.26;100.00;65085.03;5170669;28;20017;-74
2023/04/07 08:40:20;;;;;;;4.60;2.90;;;;;;;-146.26;100.00;65085.03;5181625;28;20130;-74
2023/04/07 08:42:51;;;;;;;8.77;3.17;;;;;;;-146.26;100.00;65085.03;5167236;28;20022;-74
2023/04/07 08:45:23;;;;;;;10.93;4.50;;;;;;;-146.26;100.00;65085.03;5183812;28;20028;-74
2023/04/07 08:47:56;;;;;;;13.57;6.50;;;;;;;-146.26;100.00;65085.03;5184106;28;20034;-74
2023/04/07 08:50:27;;;;;;;18.95;7.75;;;;;;;-146.26;100.00;65085.03;5185001;28;20486;-74
2023/04/07 08:53:00;;;;;;;20.85;6.70;;;;;;;-146.26;100.00;65085.03;5184316;28;20080;-74
2023/04/07 08:55:30;;;;;;;13.77;6.13;;;;;;;-146.26;100.00;65085.03;5184810;28;20022;-74
2023/04/07 08:58:02;;;;;;;13.20;5.90;;;;;;;-146.26;100.00;65085.03;5183389;28;20030;-75
2023/04/07 09:00:33;;;;;;;11.90;6.15;;;;;;;-146.26;100.00;65085.03;5184799;28;20049;-74
2023/04/07 09:03:04;;;;;;;19.00;6.75;;;;;;;-146.26;100.00;65085.03;5183991;28;20137;-75
2023/04/07 09:05:35;;;;;;;16.45;5.80;;;;;;;-146.26;100.00;65085.03;5184259;28;20510;-75
2023/04/07 09:08:05;;;;;;;13.45;6.05;;;;;;;-146.26;100.00;65085.03;5183230;28;20022;-75
2023/04/07 09:10:36;;;;;;;78.15;43.35;;;;;;;-146.26;100.00;65085.03;5184880;28;20030;-75
2023/04/07 09:13:07;;;;;;;17.13;8.93;;;;;;;-146.26;100.00;65085.03;5183941;28;20403;-75
2023/04/07 09:15:38;;;;;;;17.70;11.98;;;;;;;-146.26;100.00;65085.03;5184391;28;20057;-75
2023/04/07 09:18:09;;;;;;;10.07;5.47;;;;;;;-146.26;100.00;65085.03;5182697;28;20049;-75
2023/04/07 09:21:02;;;;;;;9.02;4.95;;;;;;;-146.26;100.00;65085.03;5182854;28;20063;-76
2023/04/07 09:23:36;;;;;;;10.40;5.18;;;;;;;-146.26;100.00;65085.03;5184497;28;20021;-75
2023/04/07 09:26:20;;;;;;;11.43;4.68;;;;;;;-146.26;100.00;65085.03;5183633;28;20084;-75
2023/04/07 09:28:54;;;;;;;8.17;4.30;;;;;;;-146.26;100.00;65085.03;5183389;28;20091;-75
2023/04/07 09:31:45;;;;;;;10.90;4.35;;;;;;;-146.26;100.00;65085.03;5184466;28;20457;-75
2023/04/07 09:34:41;;;;;;;12.98;4.38;;;;;;;-146.26;100.00;65085.03;5178445;28;20030;-75
2023/04/07 09:37:20;;;;;;;;;;;;;;;-146.26;100.00;65085.03;5179988;28;20403;-75
2023/04/07 09:39:52;;;;;;;10.93;4.13;;;;;;;-146.26;100.00;65085.03;5182570;28;19909;-75
2023/04/07 09:42:23;;;;;;;6.32;3.72;;;;;;;-146.26;100.00;65085.03;5182395;28;20038;-75
2023/04/07 09:44:53;;;;;;;6.38;3.10;;;;;;;-146.26;100.00;65085.03;5183911;28;20514;-75
2023/04/07 09:47:44;;;;;;;8.10;3.35;;;;;;;-146.26;100.00;65085.03;5182720;28;20037;-75
2023/04/07 09:50:14;;;;;;;7.72;3.50;;;;;;;-146.26;100.00;65085.03;5183765;28;20034;-75
2023/04/07 09:52:58;;;;;;;10.05;3.55;;;;;;;-146.26;100.00;65085.03;5182623;28;20038;-75
2023/04/07 09:55:29;;;;;;;10.68;3.60;;;;;;;-146.26;100.00;65085.03;5170309;28;20021;-75
2023/04/07 09:58:00;;;;;;;8.18;2.63;;;;;;;-146.26;100.00;65085.03;5180935;28;20025;-75
2023/04/07 10:00:31;;;;;;;18.65;3.30;;;;;;;-146.26;100.00;65085.03;5183298;28;20025;-75
2023/04/07 10:03:03;;;;;;;10.98;3.10;;;;;;;-146.26;100.00;65085.03;5183406;28;20041;-75
2023/04/07 10:05:35;;;;;;;7.15;3.63;;;;;;;-146.26;100.00;65085.03;5183190;28;20034;-75
2023/04/07 10:08:06;;;;;;;11.30;4.88;;;;;;;-146.26;100.00;65085.03;5176577;28;20112;-75
2023/04/07 10:10:42;;;;;;;18.10;4.28;;;;;;;-146.26;100.00;65085.03;5174338;28;20112;-75
2023/04/07 10:13:12;;;;;;;8.10;4.10;;;;;;;-146.26;100.00;65085.03;5182899;28;20024;-75
2023/04/07 10:15:43;;;;;;;11.82;4.10;;;;;;;-146.26;100.00;65085.03;5183395;28;20475;-74
2023/04/07 10:18:14;;;;;;;9.13;3.80;;;;;;;-146.26;100.00;65085.03;5181938;28;20484;-74
2023/04/07 10:20:48;;;;;;;18.63;4.95;;;;;;;-146.26;100.00;65085.03;5182425;28;20141;-74
2023/04/07 10:23:24;;;;;;;8.38;4.03;;;;;;;-146.26;100.00;65085.03;5183264;28;20072;-75
2023/04/07 10:25:57;;;;;;;16.48;4.15;;;;;;;-146.26;100.00;65085.03;5182473;28;20073;-75
2023/04/07 10:28:30;;;;;;;14.07;3.63;;;;;;;-146.26;100.00;65085.03;5182438;28;20026;-75
2023/04/07 10:31:01;;;;;;;7.82;2.80;;;;;;;-146.26;100.00;65085.03;5182491;28;20052;-75
2023/04/07 10:33:51;;;;;;;7.72;2.63;;;;;;;-146.26;100.00;65085.03;5182733;28;20084;-75
2023/04/07 10:36:22;;;;;;;10.15;2.47;;;;;;;-146.26;100.00;65085.03;5182365;28;20029;-74
2023/04/07 10:39:11;;;;;;;8.73;2.65;;;;;;;-146.26;100.00;65085.03;5182089;28;20516;-75
2023/04/07 10:41:41;;;;;;;6.95;2.80;;;;;;;-146.26;100.00;65085.03;5182331;28;20037;-74
2023/04/07 10:44:48;;;;;;;10.02;3.35;;;;;;;-146.26;100.00;65085.03;5181484;28;20582;-75
2023/04/07 10:47:18;;;;;;;8.80;3.33;;;;;;;-146.26;100.00;65085.03;5181489;28;20029;-75
2023/04/07 10:50:28;;;;;;;11.13;3.25;;;;;;;-146.26;100.00;65085.03;5180077;28;20554;-74
2023/04/07 10:53:11;;;;;;;9.18;3.00;;;;;;;-146.26;100.00;65085.03;5182348;28;20403;-75
2023/04/07 10:55:43;;;;;;;9.52;2.85;;;;;;;-146.26;100.00;65085.03;5169180;28;20018;-75
2023/04/07 10:58:32;;;;;;;9.93;2.97;;;;;;;-146.26;100.00;65085.03;5177999;28;20065;-74
2023/04/07 11:01:03;;;;;;;10.00;2.70;;;;;;;-146.26;100.00;65085.03;5181605;28;20025;-74
2023/04/07 11:04:08;;;;;;;14.18;2.63;;;;;;;-146.26;100.00;65085.03;5182106;28;20037;-74
2023/04/07 11:06:58;;;;;;;12.07;3.05;;;;;;;-146.26;100.00;65085.03;5180623;28;20038;-74
2023/04/07 11:09:29;;;;;;;11.32;2.63;;;;;;;-146.26;100.00;65085.03;5177368;28;20038;-74
2023/04/07 11:11:59;;;;;;;9.32;3.67;;;;;;;-146.26;100.00;65085.03;5182497;28;20025;-74
2023/04/07 11:14:32;;;;;;;9.10;2.83;;;;;;;-146.26;100.00;65085.03;5176592;28;20057;-74
2023/04/07 11:17:02;;;;;;;9.13;3.15;;;;;;;-146.26;100.00;65085.03;5179614;28;20028;-75
2023/04/07 11:19:50;;;;;;;4.90;2.53;;;;;;;-146.26;100.00;65085.03;5182553;28;20025;-74
2023/04/07 11:22:20;;;;;;;11.63;3.40;;;;;;;-146.26;100.00;65085.03;5181965;28;20108;-74
2023/04/07 11:24:51;;;;;;;13.02;2.78;;;;;;;-146.26;100.00;65085.03;5181728;28;20129;-75